Gueydan, LA (70542)

4:59 PM CST on February 01, 2015 (GMT -0600)
Monceaux Road | Change Station
CLOSE
Current Station
Personal Weather Station
Location: Gueydan, LA
Elevation: 10 ft
Nearby Weather Stations

Elev 10 ft 29.99 °N, 92.57 °W | Updated 1 second ago

Mostly Cloudy
Mostly Cloudy
68.4 °F
Feels Like 68.4 °F
N
16.1
Wind Variable Wind from SSW
Gusts 16.1 mph

Today
High -- | Low -- °F
--% Chance of Precip.
Yesterday
High -- | Low -- °F
Precip. -- in
7:00 AM 5:47 PM
Waxing Gibbous, 96% visible
Pressure 29.87 in
Visibility 10.0 miles
Clouds Scattered Clouds 2100 ft
Overcast 6000 ft
Dew Point 66 °F
Humidity 92%
Rainfall 0.02 in
Snow Depth Not available.
UV 0.0 out of 12
Pollen 8.70 out of 12
Air Quality Not available.
Flu Activity Not available.
METAR K3R7 012235Z AUTO 22012G16KT 10SM SCT021 OVC060 21/18 A2987 RMK AO2 T02120175

More Conditions Fewer Conditions

Pressure 29.87 in
Visibility 10.0 miles
Clouds Scattered Clouds 2100 ft
Overcast 6000 ft
Dew Point 66 °F
Humidity 92%
Rainfall 0.02 in
Snow Depth Not available.
UV 0.0 out of 12
Pollen 8.70 out of 12
Air Quality Not available.
Flu Activity Not available.
METAR K3R7 012235Z AUTO 22012G16KT 10SM SCT021 OVC060 21/18 A2987 RMK AO2 T02120175

More Conditions Fewer Conditions

Nowcast | as of 4:58 PM CST on February 1, 2015

A line of showers and thunderstorms will move across southeast Texas and central Louisiana through 6 PM. The stronger storms will produce wind gusts of 40 mph and heavy rain.

×

10-Day Weather Forecast

Almanac

Astronomy

Feb. 01, 2015 Rise Set
Actual Time
Civil Twilight
Nautical Twilight
Astronomical Twilight
Moon
Length of Visible Light
Length of Day
Tomorrow will be .
, % of the Moon is Illuminated

Today's Extremes

State Highs State Lows

Community

WunderPhotos

Upload Photos

1,792,581 photos uploaded!

WunderBlogs® & News

Nearby

Air Quality

  Air Quality AQ Index Pollutant
Not available.

Snow Depth

Station Depth Elevation

Earthquake Activity

City Distance Mag. Time & Date
Minimum magnitude displayed is 2.5.

Coastal Water Temperatures

Place Temperature

Nearby Weather Stations